Time;durP1;ratioP1;P1;durP2;ratioP2;P2;SDS_P1;SDS_P2;PMS_P1;PMS_P2;Temp;Humidity;BMP_temperature;BMP_pressure;BME280_temperature;BME280_humidity;BME280_pressure;Samples;Min_cycle;Max_cycle;Signal;HPM_P1;HPM_P2
2020/12/14 00:00:24;;;;;;;1999.90;999.90;;;;;;;6.81;80.51;101034.47;15853211;28;20034;-59
2020/12/14 00:07:57;;;;;;;1999.90;999.90;;;;;;;6.85;80.46;101030.78;15834564;28;20127;-60
2020/12/14 00:15:31;;;;;;;1999.90;999.90;;;;;;;6.95;79.65;101027.03;15839589;28;20035;-61
2020/12/14 00:23:04;;;;;;;1999.90;999.90;;;;;;;7.10;78.56;101035.13;15850081;28;20051;-58
2020/12/14 00:30:38;;;;;;;1999.90;999.90;;;;;;;7.09;79.29;101016.84;15868340;28;20059;-57
2020/12/14 00:38:10;;;;;;;1999.90;999.90;;;;;;;6.68;80.23;101011.09;15850452;28;20043;-56
2020/12/14 00:45:44;;;;;;;1999.90;999.90;;;;;;;6.85;80.22;101010.53;15849277;28;20408;-58
2020/12/14 00:53:16;;;;;;;1999.90;999.90;;;;;;;6.74;80.38;101026.50;15850385;28;20047;-56
2020/12/14 01:00:49;;;;;;;1999.90;999.90;;;;;;;7.04;79.76;101032.72;15866845;28;20043;-57
2020/12/14 01:08:22;;;;;;;1999.90;999.90;;;;;;;6.88;80.22;101044.06;15867495;28;20047;-58
2020/12/14 01:15:55;;;;;;;1999.90;999.90;;;;;;;7.00;79.82;101054.72;15848827;28;20040;-57
2020/12/14 01:23:28;;;;;;;1999.90;999.90;;;;;;;6.89;80.42;101054.03;15876874;28;20054;-59
2020/12/14 01:31:01;;;;;;;1999.90;999.90;;;;;;;6.67;81.83;101067.69;15879130;28;20504;-55
2020/12/14 01:38:34;;;;;;;1999.90;999.90;;;;;;;6.58;83.09;101058.38;15878944;28;20131;-61
2020/12/14 01:46:08;;;;;;;1999.90;999.90;;;;;;;6.81;82.46;101060.25;15859907;28;20048;-59
2020/12/14 01:53:43;;;;;;;1999.90;999.90;;;;;;;6.69;82.70;101034.94;15877870;28;20424;-61
2020/12/14 02:01:16;;;;;;;1999.90;999.90;;;;;;;6.82;82.68;101038.91;15877396;28;20043;-61
2020/12/14 02:08:49;;;;;;;1999.90;999.90;;;;;;;6.82;82.85;101039.72;15841804;28;20054;-61
2020/12/14 02:16:22;;;;;;;1999.90;999.90;;;;;;;7.07;81.88;101034.91;15876729;28;20404;-57
2020/12/14 02:23:55;;;;;;;1999.90;999.90;;;;;;;6.80;83.36;101027.28;15857947;28;20416;-58
2020/12/14 02:31:28;;;;;;;1999.90;999.90;;;;;;;6.95;82.74;101010.38;15874760;28;20093;-60
2020/12/14 02:39:01;;;;;;;1999.90;999.90;;;;;;;6.74;83.65;101015.41;15856384;28;20394;-59
2020/12/14 02:46:35;;;;;;;1999.90;999.90;;;;;;;6.69;83.76;101021.06;15856580;28;20055;-57
2020/12/14 02:54:07;;;;;;;1999.90;999.90;;;;;;;6.72;82.65;101012.13;15855735;28;20074;-58
2020/12/14 03:01:41;;;;;;;1999.90;999.90;;;;;;;6.73;82.63;101015.72;15873796;28;20040;-61
2020/12/14 03:09:14;;;;;;;1999.90;999.90;;;;;;;7.00;81.36;101040.03;15873058;28;20035;-56
2020/12/14 03:16:49;;;;;;;1999.90;999.90;;;;;;;6.83;81.05;101037.78;15854940;28;20036;-56
2020/12/14 03:24:22;;;;;;;1999.90;999.90;;;;;;;6.62;81.03;101020.59;15837792;28;20070;-59
2020/12/14 03:31:55;;;;;;;1999.90;999.90;;;;;;;6.52;80.68;101029.88;15871804;28;20032;-60
2020/12/14 03:39:28;;;;;;;1999.90;999.90;;;;;;;6.32;80.48;101025.44;15836052;28;20066;-55
2020/12/14 03:47:01;;;;;;;1999.90;999.90;;;;;;;6.06;81.01;101024.13;15850496;28;20051;-57
2020/12/14 03:54:34;;;;;;;1999.90;999.90;;;;;;;5.84;82.08;100996.09;15852095;28;20057;-58
2020/12/14 04:02:07;;;;;;;1999.90;999.90;;;;;;;5.48;82.61;100988.97;15852532;28;20071;-58
2020/12/14 04:09:42;;;;;;;1999.90;999.90;;;;;;;5.83;81.99;100986.13;15851921;28;20032;-60
2020/12/14 04:17:15;;;;;;;1999.90;999.90;;;;;;;5.78;82.43;100989.78;15869216;28;20048;-59
2020/12/14 04:24:49;;;;;;;1999.90;999.90;;;;;;;5.71;82.37;100979.03;15868723;28;20130;-55
2020/12/14 04:32:22;;;;;;;1999.90;999.90;;;;;;;5.83;81.96;100997.19;15869199;28;20050;-56
2020/12/14 04:39:55;;;;;;;1999.90;999.90;;;;;;;5.65;82.54;101009.88;15849872;28;20048;-60
2020/12/14 04:47:28;;;;;;;1999.90;999.90;;;;;;;5.85;81.53;101006.88;15867954;28;20054;-60
2020/12/14 04:55:03;;;;;;;1999.90;999.90;;;;;;;5.80;81.94;101004.16;15825338;28;20059;-56
2020/12/14 05:02:37;;;;;;;1999.90;999.90;;;;;;;5.68;82.13;101012.88;15849919;28;20044;-55
2020/12/14 05:10:10;;;;;;;1999.90;999.90;;;;;;;5.63;81.64;101009.34;15867254;28;20035;-54
2020/12/14 05:17:45;;;;;;;1999.90;999.90;;;;;;;5.59;82.22;101022.09;15867697;28;20044;-56
2020/12/14 05:25:19;;;;;;;1999.90;999.90;;;;;;;5.45;82.54;101021.97;15870523;28;20092;-60
2020/12/14 05:33:00;;;;;;;1999.90;999.90;;;;;;;5.39;82.27;101014.81;15888006;28;20054;-61
2020/12/14 05:40:34;;;;;;;1999.90;999.90;;;;;;;5.64;81.14;101002.69;15859217;28;20035;-57
2020/12/14 05:48:22;;;;;;;1999.90;999.90;;;;;;;5.73;81.09;100996.22;15868683;28;20044;-56
2020/12/14 05:55:59;;;;;;;1999.90;999.90;;;;;;;5.56;81.35;100993.06;15866263;28;20048;-58
2020/12/14 06:03:37;;;;;;;1999.90;999.90;;;;;;;5.59;81.25;100991.66;15837280;28;20051;-60
2020/12/14 06:11:10;;;;;;;1999.90;999.90;;;;;;;5.45;81.52;100999.81;15831095;28;20051;-58
2020/12/14 06:18:45;;;;;;;1999.90;999.90;;;;;;;5.44;81.98;100992.63;15828078;28;20039;-60
2020/12/14 06:26:22;;;;;;;1999.90;999.90;;;;;;;5.53;81.35;101018.56;15856670;28;20147;-59
2020/12/14 06:33:56;;;;;;;1999.90;999.90;;;;;;;5.61;80.85;101015.16;15867890;28;20040;-58
2020/12/14 06:41:32;;;;;;;1999.90;999.90;;;;;;;5.55;81.07;101009.97;15856085;28;20043;-58
2020/12/14 06:49:09;;;;;;;1999.90;999.90;;;;;;;5.35;81.55;100999.91;15872218;28;20086;-58
2020/12/14 06:56:43;;;;;;;1999.90;999.90;;;;;;;5.11;82.57;101017.28;15874289;28;20089;-58
2020/12/14 07:04:37;;;;;;;1999.90;999.90;;;;;;;5.47;81.37;101012.25;15855535;28;20044;-57
2020/12/14 07:12:24;;;;;;;1999.90;999.90;;;;;;;5.40;81.44;101017.28;15855958;28;20047;-58
2020/12/14 07:19:59;;;;;;;1999.90;999.90;;;;;;;5.34;81.22;101006.56;15854320;28;20040;-59
2020/12/14 07:27:34;;;;;;;1999.90;999.90;;;;;;;4.92;82.06;101002.50;15873515;28;20043;-58
2020/12/14 07:35:09;;;;;;;1999.90;999.90;;;;;;;4.87;82.27;101008.88;15853866;28;20059;-59
2020/12/14 07:42:44;;;;;;;1999.90;999.90;;;;;;;4.75;83.11;101018.66;15854090;28;20412;-57
2020/12/14 07:50:20;;;;;;;1999.90;999.90;;;;;;;5.09;81.07;101013.97;15871185;28;20047;-58
2020/12/14 07:57:55;;;;;;;1999.90;999.90;;;;;;;5.18;80.98;101019.72;15852301;28;20041;-60
2020/12/14 08:05:29;;;;;;;1999.90;999.90;;;;;;;5.40;80.75;101017.28;15870508;28;20096;-58
2020/12/14 08:13:04;;;;;;;1999.90;999.90;;;;;;;5.35;80.86;101002.69;15870382;28;20455;-60
2020/12/14 08:20:40;;;;;;;1999.90;999.90;;;;;;;5.10;81.40;101004.53;15851191;28;20132;-58
2020/12/14 08:28:12;;;;;;;1999.90;999.90;;;;;;;5.61;80.41;101000.47;15868008;28;20420;-57
2020/12/14 08:35:47;;;;;;;1999.90;999.90;;;;;;;6.04;79.98;101004.16;15868728;28;20084;-61
2020/12/14 08:43:22;;;;;;;1999.90;999.90;;;;;;;6.44;78.81;101005.59;15850473;28;20071;-57
2020/12/14 08:51:12;;;;;;;1999.90;999.90;;;;;;;6.40;78.48;101012.03;15833248;28;20068;-56
2020/12/14 08:58:46;;;;;;;1999.90;999.90;;;;;;;6.22;79.00;101014.47;15866444;28;20416;-58
2020/12/14 09:06:29;;;;;;;;;;;;;;;6.53;77.44;101005.75;15850039;28;20047;-60
2020/12/14 09:14:05;;;;;;;1999.90;999.90;;;;;;;6.62;77.37;101009.50;15849819;28;19958;-59
2020/12/14 09:21:41;;;;;;;1999.90;999.90;;;;;;;6.90;76.70;101002.16;15849145;28;20048;-59
2020/12/14 09:29:15;;;;;;;1999.90;999.90;;;;;;;7.06;75.98;100997.16;15850145;28;20082;-59
2020/12/14 09:36:51;;;;;;;1999.90;999.90;;;;;;;6.73;77.07;101001.88;15866806;28;20470;-61
2020/12/14 09:44:25;;;;;;;1999.90;999.90;;;;;;;7.11;76.06;100997.94;15876066;28;20044;-61
2020/12/14 09:51:58;;;;;;;1999.90;999.90;;;;;;;7.28;75.47;100996.53;15879341;28;20039;-57
2020/12/14 09:59:31;;;;;;;;;;;;;;;7.31;75.03;100987.59;15878401;28;20119;-57
2020/12/14 10:07:05;;;;;;;1999.90;999.90;;;;;;;7.44;75.37;100992.38;15859407;28;20274;-59
2020/12/14 10:14:37;;;;;;;1999.90;999.90;;;;;;;7.14;75.85;100990.94;15877250;28;20067;-59
2020/12/14 10:22:11;;;;;;;1999.90;999.90;;;;;;;7.39;76.29;100990.47;15858370;28;20071;-58
2020/12/14 10:29:44;;;;;;;1999.90;999.90;;;;;;;7.60;75.23;100985.38;15876667;28;20126;-58
2020/12/14 10:37:17;;;;;;;1999.90;999.90;;;;;;;7.80;74.75;100990.53;15875620;28;20470;-60
2020/12/14 10:44:50;;;;;;;1999.90;999.90;;;;;;;8.09;73.67;100981.09;15857109;28;20044;-57
2020/12/14 10:52:23;;;;;;;1999.90;999.90;;;;;;;8.41;72.92;100982.09;15856039;28;20465;-56
2020/12/14 10:59:58;;;;;;;1999.90;999.90;;;;;;;8.42;73.07;100975.41;15875370;28;20067;-58
2020/12/14 11:07:32;;;;;;;1999.90;999.90;;;;;;;9.35;69.79;100956.97;15875543;28;20063;-58
2020/12/14 11:15:07;;;;;;;1999.90;999.90;;;;;;;11.55;63.44;100957.44;15855703;28;20093;-57
2020/12/14 11:22:41;;;;;;;1999.90;999.90;;;;;;;12.22;60.57;100953.88;15873191;28;20108;-57
2020/12/14 11:30:14;;;;;;;1999.90;999.90;;;;;;;12.21;59.48;100952.25;15872340;28;20101;-54
2020/12/14 11:37:48;;;;;;;1999.90;999.90;;;;;;;12.50;59.16;100953.34;15872587;28;20046;-54
2020/12/14 11:45:23;;;;;;;1999.90;999.90;;;;;;;11.93;60.86;100940.72;15855201;28;20051;-54
2020/12/14 11:52:56;;;;;;;1999.90;999.90;;;;;;;11.41;62.21;100940.88;15855690;28;20058;-58
2020/12/14 12:00:29;;;;;;;;;;;;;;;10.33;66.20;100928.03;15855504;28;20047;-57
2020/12/14 12:08:02;;;;;;;1999.90;999.90;;;;;;;9.65;68.87;100915.50;15875165;28;19951;-56
2020/12/14 12:15:38;;;;;;;1999.90;999.90;;;;;;;9.37;69.75;100912.91;15860744;28;20130;-58
2020/12/14 12:23:11;;;;;;;1999.90;999.90;;;;;;;10.47;66.23;100902.75;15852066;28;20047;-57
2020/12/14 12:30:44;;;;;;;1999.90;999.90;;;;;;;9.92;67.56;100908.88;15851757;28;20050;-54
2020/12/14 12:38:19;;;;;;;1999.90;999.90;;;;;;;10.16;67.28;100894.47;15869787;28;20054;-56
2020/12/14 12:45:53;;;;;;;1999.90;999.90;;;;;;;9.94;68.05;100898.22;15869292;28;20492;-57
2020/12/14 12:53:27;;;;;;;1999.90;999.90;;;;;;;10.21;66.98;100891.53;15850865;28;20081;-57
2020/12/14 13:01:00;;;;;;;1999.90;999.90;;;;;;;9.78;67.62;100893.06;15867799;28;20066;-55
2020/12/14 13:08:37;;;;;;;1999.90;999.90;;;;;;;9.81;68.04;100891.63;15867931;28;20565;-57
2020/12/14 13:16:10;;;;;;;1999.90;999.90;;;;;;;9.90;67.45;100892.47;15871996;28;20522;-57
2020/12/14 13:23:44;;;;;;;1999.90;999.90;;;;;;;9.80;67.90;100896.38;15862534;28;20071;-56
2020/12/14 13:31:17;;;;;;;1999.90;999.90;;;;;;;9.81;67.86;100897.22;15879564;28;20104;-55
2020/12/14 13:38:51;;;;;;;;;;;;;;;9.90;67.55;100903.63;15879653;28;20047;-55
2020/12/14 13:46:24;;;;;;;1999.90;999.90;;;;;;;9.75;67.93;100890.94;15860628;28;19943;-58
2020/12/14 13:53:58;;;;;;;1999.90;999.90;;;;;;;9.59;68.30;100884.19;15878681;28;20133;-61
2020/12/14 14:01:31;;;;;;;1999.90;999.90;;;;;;;9.41;68.92;100865.75;15878783;28;20044;-60
2020/12/14 14:09:05;;;;;;;1999.90;999.90;;;;;;;9.42;68.91;100847.91;15860338;28;20050;-58
2020/12/14 14:16:38;;;;;;;1999.90;999.90;;;;;;;9.21;69.74;100844.88;15877184;28;20043;-58
2020/12/14 14:24:12;;;;;;;1999.90;999.90;;;;;;;9.25;69.33;100876.50;15858240;28;20463;-58
2020/12/14 14:31:50;;;;;;;1999.90;999.90;;;;;;;9.41;68.70;100888.03;15877996;28;20036;-57
2020/12/14 14:39:26;;;;;;;1999.90;999.90;;;;;;;9.29;69.27;100893.41;15876475;28;20119;-56
2020/12/14 14:47:00;;;;;;;1999.90;999.90;;;;;;;9.15;69.47;100897.06;15859285;28;20084;-54
2020/12/14 14:54:35;;;;;;;1999.90;999.90;;;;;;;9.06;69.58;100887.84;15860731;28;20481;-59
2020/12/14 15:02:15;;;;;;;1999.90;999.90;;;;;;;8.98;69.59;100891.44;15874474;28;20047;-58
2020/12/14 15:10:00;;;;;;;1999.90;999.90;;;;;;;9.14;69.22;100880.69;15854660;28;20409;-60
2020/12/14 15:17:37;;;;;;;1999.90;999.90;;;;;;;9.07;69.00;100883.13;15872828;28;20122;-60
2020/12/14 15:25:14;;;;;;;1999.90;999.90;;;;;;;9.13;69.05;100891.00;15871899;28;20556;-59
2020/12/14 15:32:46;;;;;;;;;;;;;;;9.24;68.65;100892.38;15873275;28;20134;-60
2020/12/14 15:40:20;;;;;;;1999.90;999.90;;;;;;;9.09;68.99;100884.44;15870830;28;20305;-59
2020/12/14 15:47:53;;;;;;;1999.90;999.90;;;;;;;9.06;69.29;100873.09;15871872;28;20031;-58
2020/12/14 15:55:27;;;;;;;1999.90;999.90;;;;;;;9.13;68.86;100874.31;15853345;28;20051;-59
2020/12/14 16:03:01;;;;;;;1999.90;999.90;;;;;;;9.13;68.98;100879.88;15870866;28;20040;-57
2020/12/14 16:10:34;;;;;;;1999.90;999.90;;;;;;;9.12;69.03;100875.44;15870473;28;20046;-60
2020/12/14 16:18:07;;;;;;;1999.90;999.90;;;;;;;9.37;68.47;100885.06;15856183;28;20054;-60
2020/12/14 16:25:42;;;;;;;1999.90;999.90;;;;;;;9.42;68.07;100889.69;15850268;28;20101;-60
2020/12/14 16:33:15;;;;;;;1999.90;999.90;;;;;;;9.40;68.13;100878.88;15850489;28;20044;-57
2020/12/14 16:40:48;;;;;;;1999.90;999.90;;;;;;;9.33;68.36;100864.56;15833230;28;20043;-57
2020/12/14 16:48:21;;;;;;;1999.90;999.90;;;;;;;9.30;68.43;100869.97;15868025;28;20074;-57
2020/12/14 16:55:55;;;;;;;1999.90;999.90;;;;;;;9.32;68.19;100862.94;15849677;28;20509;-58
2020/12/14 17:03:30;;;;;;;1999.90;999.90;;;;;;;9.28;68.44;100859.16;15868674;28;20457;-57
2020/12/14 17:11:03;;;;;;;1999.90;999.90;;;;;;;9.24;68.27;100858.13;15866742;28;20048;-58
2020/12/14 17:18:36;;;;;;;1999.90;999.90;;;;;;;9.15;68.64;100844.19;15866388;28;20068;-57
2020/12/14 17:26:10;;;;;;;1999.90;999.90;;;;;;;9.32;68.16;100857.38;15866645;28;20044;-59
2020/12/14 17:33:45;;;;;;;1999.90;999.90;;;;;;;9.04;69.15;100842.81;15863190;28;20096;-55
2020/12/14 17:41:19;;;;;;;1999.90;999.90;;;;;;;9.12;69.33;100844.81;15864637;28;20067;-55
2020/12/14 17:48:52;;;;;;;1999.90;999.90;;;;;;;9.16;69.25;100845.81;15828147;28;20044;-57
2020/12/14 17:56:32;;;;;;;1999.90;999.90;;;;;;;9.42;68.40;100850.69;15845879;28;20051;-58
2020/12/14 18:04:04;;;;;;;1999.90;999.90;;;;;;;9.12;69.34;100838.44;15850922;28;20042;-61
2020/12/14 18:11:39;;;;;;;1999.90;999.90;;;;;;;9.17;69.13;100841.06;15878219;28;20047;-56
2020/12/14 18:19:12;;;;;;;1999.90;999.90;;;;;;;9.29;69.26;100851.63;15854929;27;20038;-63
2020/12/14 18:26:46;;;;;;;1999.90;999.90;;;;;;;9.46;68.47;100860.03;15874820;27;20051;-56
2020/12/14 21:29:35;;;;;;;1999.90;999.90;;;;;;;9.24;67.17;100920.22;15847530;28;20585;-59
2020/12/14 21:37:11;;;;;;;1999.90;999.90;;;;;;;9.13;67.47;100923.59;15850719;28;20047;-58
2020/12/14 21:44:43;;;;;;;1999.90;999.90;;;;;;;9.03;67.36;100919.13;15860591;28;20051;-61
2020/12/14 21:52:16;;;;;;;1999.90;999.90;;;;;;;8.78;68.24;100922.56;15877450;28;20044;-57
2020/12/14 21:59:50;;;;;;;1999.90;999.90;;;;;;;9.04;67.31;100934.66;15857921;28;20093;-60
2020/12/14 22:07:24;;;;;;;1999.90;999.90;;;;;;;9.05;66.84;100932.72;15876880;28;20478;-59
2020/12/14 22:14:56;;;;;;;1999.90;999.90;;;;;;;8.81;67.61;100927.47;15875686;28;20048;-60
2020/12/14 22:22:30;;;;;;;1999.90;999.90;;;;;;;8.54;67.79;100922.81;15875872;28;20396;-57
2020/12/14 22:30:03;;;;;;;1999.90;999.90;;;;;;;8.67;66.85;100922.81;15864272;28;20035;-57
2020/12/14 22:37:39;;;;;;;1999.90;999.90;;;;;;;8.53;66.99;100912.84;15841920;28;20047;-58
2020/12/14 22:45:12;;;;;;;1999.90;999.90;;;;;;;8.70;66.49;100932.47;15874188;28;20086;-54
2020/12/14 22:52:45;;;;;;;1999.90;999.90;;;;;;;8.48;67.02;100932.44;15854722;28;20047;-54
2020/12/14 23:00:18;;;;;;;1999.90;999.90;;;;;;;8.44;66.88;100929.47;15854205;28;20070;-53
2020/12/14 23:07:53;;;;;;;1999.90;999.90;;;;;;;8.45;66.01;100928.34;15872936;28;20481;-54
2020/12/14 23:15:25;;;;;;;1999.90;999.90;;;;;;;8.53;66.23;100935.09;15873179;28;20047;-56
2020/12/14 23:22:59;;;;;;;1999.90;999.90;;;;;;;8.48;65.98;100924.09;15853659;28;20075;-53
2020/12/14 23:30:31;;;;;;;1999.90;999.90;;;;;;;8.45;66.21;100920.00;15871441;28;20077;-53
2020/12/14 23:38:05;;;;;;;1999.90;999.90;;;;;;;8.50;65.80;100907.91;15870955;28;20421;-56
2020/12/14 23:45:37;;;;;;;1999.90;999.90;;;;;;;8.30;66.50;100900.84;15872614;28;20058;-53
2020/12/14 23:53:11;;;;;;;1999.90;999.90;;;;;;;7.89;66.92;100898.97;15879262;28;20043;-58
